Terminal Aerodrome Forecast
Issued by NWS

Home | Current Version | Previous Version | Text Only | Print | Product List | Glossary On
Versions: 1 2 3 4 5 6 7 8 9 10 11 12 13 14 15 16
643
FTUS43 KJKL 200401 AAB
TAFSME
TAF AMD
KSME 200401Z 2004/2024 00000KT 3SM BR SCT050
      TEMPO 2004/2008 1/2SM FG BKN002 BKN050
     FM200800 00000KT 1/2SM FG VV002
     FM201200 00000KT 1SM BR BKN050
     FM201300 VRB03KT P6SM FEW010 BKN060
     FM201600 VRB05KT P6SM VCTS BKN050CB=

USA.gov is the U.S. government's official web portal to all federal, state and local government web resources and services.